createdAt,value
2022-11-23T00:00:59.827Z,99191.07
2022-11-23T00:03:52.211Z,99192.23
2022-11-23T00:06:40.457Z,99187.63
2022-11-23T00:09:28.673Z,99190.77
2022-11-23T00:12:16.273Z,99189.70
2022-11-23T00:15:05.355Z,99192.55
2022-11-23T00:17:53.027Z,99195.10
2022-11-23T00:20:40.943Z,99197.88
2022-11-23T00:23:29.529Z,99201.08
2022-11-23T00:26:18.080Z,99205.29
2022-11-23T00:29:05.473Z,99207.45
2022-11-23T00:31:53.002Z,99203.63
2022-11-23T00:34:40.977Z,99204.20
2022-11-23T00:37:28.796Z,99206.70
2022-11-23T00:40:17.377Z,99200.69
2022-11-23T00:43:05.174Z,99201.16
2022-11-23T00:46:23.917Z,99200.04
2022-11-23T00:49:11.328Z,99196.02
2022-11-23T00:51:59.097Z,99189.92
2022-11-23T00:54:46.838Z,99184.48
2022-11-23T00:57:35.023Z,99182.67
2022-11-23T01:00:22.645Z,99184.21
2022-11-23T01:03:10.321Z,99186.77
2022-11-23T01:06:14.900Z,99192.42
2022-11-23T01:09:13.853Z,99191.13
2022-11-23T01:12:01.451Z,99185.88
2022-11-23T01:14:48.957Z,99187.68
2022-11-23T01:17:36.996Z,99192.11
2022-11-23T01:20:24.490Z,99196.45
2022-11-23T01:23:11.955Z,99200.06
2022-11-23T01:26:08.016Z,99200.03
2022-11-23T01:28:55.473Z,99194.80
2022-11-23T01:31:46.796Z,99191.85
2022-11-23T01:34:37.748Z,99194.42
2022-11-23T01:37:25.239Z,99211.74
2022-11-23T01:40:13.248Z,99214.93
2022-11-23T01:43:01.495Z,99216.61
2022-11-23T01:46:02.533Z,99208.05
2022-11-23T01:49:10.441Z,99204.74
2022-11-23T01:52:02.203Z,99204.75
2022-11-23T01:54:54.860Z,99200.61
2022-11-23T01:57:44.227Z,99194.40
2022-11-23T02:00:31.993Z,99197.02
2022-11-23T02:03:20.072Z,99198.64
2022-11-23T02:06:14.086Z,99200.30
2022-11-23T02:09:02.381Z,99194.63
2022-11-23T02:11:49.954Z,99194.67
2022-11-23T02:14:38.014Z,99197.81
2022-11-23T02:17:25.880Z,99192.98
2022-11-23T02:20:17.823Z,99191.17
2022-11-23T02:23:16.867Z,99184.76
2022-11-23T02:26:34.394Z,99191.16
2022-11-23T02:29:26.940Z,99190.25
2022-11-23T02:32:23.432Z,99188.36
2022-11-23T02:35:14.326Z,99190.28
2022-11-23T02:38:07.095Z,99187.17
2022-11-23T02:40:55.159Z,99184.40
2022-11-23T02:43:43.432Z,99182.00
2022-11-23T02:46:31.180Z,99183.21
2022-11-23T02:49:18.815Z,99186.84
2022-11-23T02:52:06.864Z,99183.14
2022-11-23T02:54:54.242Z,99187.23
2022-11-23T02:57:41.738Z,99182.00
2022-11-23T03:00:31.207Z,99184.20
2022-11-23T03:03:20.116Z,99189.16
2022-11-23T03:06:07.786Z,99194.70
2022-11-23T03:08:56.018Z,99184.63
2022-11-23T03:11:43.723Z,99185.30
2022-11-23T03:14:31.389Z,99182.89
2022-11-23T03:17:18.878Z,99184.84
2022-11-23T03:20:07.541Z,99181.33
2022-11-23T03:22:56.761Z,99185.04
2022-11-23T03:25:45.843Z,99179.52
2022-11-23T03:28:35.944Z,99177.50
2022-11-23T03:31:24.356Z,99174.91
2022-11-23T03:34:12.622Z,99174.60
2022-11-23T03:37:01.126Z,99173.37
2022-11-23T03:39:49.141Z,99170.25
2022-11-23T03:42:59.843Z,99174.39
2022-11-23T03:45:47.750Z,99178.45
2022-11-23T03:48:35.702Z,99170.58
2022-11-23T03:51:23.748Z,99169.98
2022-11-23T03:54:11.443Z,99168.08
2022-11-23T03:56:59.283Z,99163.38
2022-11-23T03:59:47.104Z,99165.68
2022-11-23T04:02:35.669Z,99167.59
2022-11-23T04:05:27.976Z,99170.29
2022-11-23T04:08:42.118Z,99170.35
2022-11-23T04:11:34.264Z,99164.30
2022-11-23T04:14:22.192Z,99167.52
2022-11-23T04:17:09.931Z,99168.59
2022-11-23T04:19:57.983Z,99171.78
2022-11-23T04:22:47.293Z,99176.56
2022-11-23T04:25:35.198Z,99185.75
2022-11-23T04:28:23.460Z,99183.88
2022-11-23T04:31:11.668Z,99186.15
2022-11-23T04:34:20.193Z,99190.05
2022-11-23T04:37:13.284Z,99184.86
2022-11-23T04:40:02.342Z,99185.55
2022-11-23T04:43:02.286Z,99179.53
2022-11-23T04:45:51.823Z,99182.33
2022-11-23T04:48:44.852Z,99189.55
2022-11-23T04:51:33.424Z,99195.83
2022-11-23T04:54:20.945Z,99196.47
2022-11-23T04:57:13.731Z,99194.04
2022-11-23T05:00:02.057Z,99194.59
2022-11-23T05:02:50.079Z,99194.71
2022-11-23T05:05:43.145Z,99198.21
2022-11-23T05:08:31.395Z,99195.30
2022-11-23T05:11:34.589Z,99191.71
2022-11-23T05:14:22.687Z,99189.91
2022-11-23T05:17:10.252Z,99193.73
2022-11-23T05:19:58.030Z,99191.80
2022-11-23T05:22:45.963Z,99189.02
2022-11-23T05:25:35.619Z,99188.12
2022-11-23T05:28:41.406Z,99185.35
2022-11-23T05:31:32.436Z,99185.35
2022-11-23T05:34:19.982Z,99183.58
2022-11-23T05:37:08.258Z,99179.35
2022-11-23T05:39:56.461Z,99180.34
2022-11-23T05:42:44.434Z,99177.54
2022-11-23T05:45:36.344Z,99178.88
2022-11-23T05:48:24.199Z,99177.52
2022-11-23T05:51:15.986Z,99181.23
2022-11-23T05:54:05.790Z,99188.09
2022-11-23T05:56:59.042Z,99190.71
2022-11-23T05:59:56.747Z,99191.98
2022-11-23T06:03:02.257Z,99193.52
2022-11-23T06:05:50.820Z,99194.10
2022-11-23T06:08:40.830Z,99194.69
2022-11-23T06:11:28.889Z,99193.75
2022-11-23T06:14:17.495Z,99187.62
2022-11-23T06:17:06.611Z,99189.98
2022-11-23T06:20:07.119Z,99191.90
2022-11-23T06:22:56.725Z,99194.14
2022-11-23T06:25:45.337Z,99195.98
2022-11-23T06:28:52.984Z,99200.98
2022-11-23T06:31:40.803Z,99200.31
2022-11-23T06:34:28.902Z,99203.23
2022-11-23T06:37:17.558Z,99203.88
2022-11-23T06:40:09.464Z,99209.89
2022-11-23T06:43:01.043Z,99206.00
2022-11-23T06:45:56.087Z,99208.13
2022-11-23T06:48:45.522Z,99208.34
2022-11-23T06:51:34.277Z,99214.59
2022-11-23T06:54:27.049Z,99221.61
2022-11-23T06:57:17.464Z,99222.73
2022-11-23T07:00:06.378Z,99217.30
2022-11-23T07:02:57.433Z,99221.41
2022-11-23T07:05:45.470Z,99219.38
2022-11-23T07:08:34.774Z,99225.66
2022-11-23T07:11:29.598Z,99222.86
2022-11-23T07:14:17.433Z,99217.04
2022-11-23T07:17:06.839Z,99222.27
2022-11-23T07:19:54.728Z,99219.27
2022-11-23T07:22:42.570Z,99222.62
2022-11-23T07:25:32.980Z,99226.35
2022-11-23T07:28:20.806Z,99221.25
2022-11-23T07:31:08.676Z,99220.77
2022-11-23T07:33:56.558Z,99222.37
2022-11-23T07:36:47.936Z,99226.70
2022-11-23T07:39:56.300Z,99229.98
2022-11-23T07:42:45.304Z,99224.16
2022-11-23T07:45:36.792Z,99217.70
2022-11-23T07:48:28.859Z,99223.20
2022-11-23T07:51:20.278Z,99232.93
2022-11-23T07:54:09.203Z,99232.13
2022-11-23T07:56:56.872Z,99228.73
2022-11-23T07:59:44.617Z,99224.26
2022-11-23T08:02:32.884Z,99221.21
2022-11-23T08:05:21.278Z,99219.63
2022-11-23T08:08:09.299Z,99222.13
2022-11-23T08:10:57.270Z,99226.60
2022-11-23T08:13:45.568Z,99234.54
2022-11-23T08:16:33.776Z,99236.32
2022-11-23T08:19:21.799Z,99238.13
2022-11-23T08:22:13.412Z,99238.10
2022-11-23T08:25:03.991Z,99237.80
2022-11-23T08:28:04.290Z,99240.59
2022-11-23T08:30:52.447Z,99250.13
2022-11-23T08:33:40.801Z,99246.08
2022-11-23T08:36:28.656Z,99243.55
2022-11-23T08:39:18.310Z,99242.15
2022-11-23T08:42:06.319Z,99250.95
2022-11-23T08:44:54.350Z,99248.02
2022-11-23T08:47:41.906Z,99251.54
2022-11-23T08:50:30.628Z,99246.85
2022-11-23T08:53:19.021Z,99245.25
2022-11-23T08:56:08.133Z,99243.27
2022-11-23T08:58:55.888Z,99241.41
2022-11-23T09:01:45.258Z,99233.47
2022-11-23T09:04:33.101Z,99238.41
2022-11-23T09:07:21.478Z,99238.05
2022-11-23T09:10:13.647Z,99244.16
2022-11-23T09:13:04.508Z,99248.31
2022-11-23T09:15:51.727Z,99239.77
2022-11-23T09:18:39.374Z,99238.76
2022-11-23T09:21:33.537Z,99237.25
2022-11-23T09:24:23.365Z,99238.40
2022-11-23T09:27:11.258Z,99235.77
2022-11-23T09:29:59.327Z,99231.80
2022-11-23T09:32:47.018Z,99234.08
2022-11-23T09:35:40.711Z,99236.52
2022-11-23T09:38:55.544Z,99239.60
2022-11-23T09:41:54.882Z,99237.48
2022-11-23T09:45:09.520Z,99236.33
2022-11-23T09:48:19.161Z,99239.09
2022-11-23T09:51:23.245Z,99242.41
2022-11-23T09:54:37.102Z,99240.33
2022-11-23T09:57:30.747Z,99244.21
2022-11-23T10:00:23.747Z,99239.77
2022-11-23T10:03:18.273Z,99243.40
2022-11-23T10:06:31.993Z,99243.39
2022-11-23T10:09:59.994Z,99242.55
2022-11-23T10:13:12.195Z,99237.95
2022-11-23T10:16:32.181Z,99234.89
2022-11-23T10:19:59.272Z,99235.70
2022-11-23T10:23:02.884Z,99229.41
2022-11-23T10:25:52.796Z,99229.67
2022-11-23T10:28:40.647Z,99230.30
2022-11-23T10:31:30.344Z,99227.27
2022-11-23T10:34:35.674Z,99225.85
2022-11-23T10:37:23.174Z,99223.15
2022-11-23T10:40:23.389Z,99220.67
2022-11-23T10:43:21.362Z,99224.06
2022-11-23T10:46:50.255Z,99219.50
2022-11-23T10:49:38.432Z,99219.85
2022-11-23T10:52:31.106Z,99217.81
2022-11-23T10:55:22.431Z,99213.09
2022-11-23T10:58:37.304Z,99213.71
2022-11-23T11:01:29.648Z,99210.82
2022-11-23T11:04:25.717Z,99208.77
2022-11-23T11:07:30.687Z,99205.34
2022-11-23T11:10:50.301Z,99197.79
2022-11-23T11:13:47.252Z,99204.33
2022-11-23T11:16:37.691Z,99199.15
2022-11-23T11:19:28.026Z,99195.94
2022-11-23T11:22:34.825Z,99193.02
2022-11-23T11:25:31.995Z,99193.02
2022-11-23T11:28:33.878Z,99197.43
2022-11-23T11:31:50.513Z,99199.96
2022-11-23T11:35:07.323Z,99200.10
2022-11-23T11:38:00.883Z,99200.14
2022-11-23T11:40:52.653Z,99201.34
2022-11-23T11:43:47.599Z,99203.34
2022-11-23T11:46:45.956Z,99206.72
2022-11-23T11:49:43.605Z,99203.91
2022-11-23T11:52:41.057Z,99202.41
2022-11-23T11:56:01.585Z,99198.90
2022-11-23T11:58:59.330Z,99202.92
2022-11-23T12:02:23.836Z,99199.99
2022-11-23T12:05:49.530Z,99198.63
2022-11-23T12:09:18.151Z,99196.65
2022-11-23T12:12:15.079Z,99198.01
2022-11-23T12:15:20.262Z,99195.70
2022-11-23T12:18:34.616Z,99198.52
2022-11-23T12:22:04.261Z,99199.13
2022-11-23T12:25:11.752Z,99199.95
2022-11-23T12:28:17.522Z,99200.85
2022-11-23T12:31:39.485Z,99199.36
2022-11-23T12:35:11.877Z,99198.16
2022-11-23T12:39:01.581Z,99195.71
2022-11-23T12:42:05.680Z,99197.83
2022-11-23T12:45:33.833Z,99198.66
2022-11-23T12:48:30.490Z,99197.77
2022-11-23T12:51:41.115Z,99198.85
2022-11-23T12:54:41.281Z,99201.71
2022-11-23T12:57:42.174Z,99202.90
2022-11-23T13:01:43.454Z,99197.65
2022-11-23T13:05:16.949Z,99191.54
2022-11-23T13:08:43.586Z,99194.98
2022-11-23T13:11:59.502Z,99196.94
2022-11-23T13:15:03.823Z,99197.52
2022-11-23T13:18:08.936Z,99202.88
2022-11-23T13:21:30.465Z,99201.05
2022-11-23T13:24:36.300Z,99200.65
2022-11-23T13:27:32.059Z,99197.34
2022-11-23T13:34:24.105Z,99205.21
2022-11-23T13:37:13.276Z,99211.08
2022-11-23T13:40:04.220Z,99209.37
2022-11-23T13:42:56.688Z,99210.28
2022-11-23T13:45:45.542Z,99212.82
2022-11-23T13:49:00.141Z,99212.72
2022-11-23T13:52:05.261Z,99210.20
2022-11-23T13:55:11.265Z,99213.10
2022-11-23T13:58:23.754Z,99215.81
2022-11-23T14:01:11.858Z,99222.80
2022-11-23T14:04:20.719Z,99229.02
2022-11-23T14:07:38.115Z,99227.77
2022-11-23T14:10:30.608Z,99228.17
2022-11-23T14:13:25.711Z,99223.48
2022-11-23T14:16:24.498Z,99230.76
2022-11-23T14:19:38.994Z,99228.33
2022-11-23T14:22:44.791Z,99230.38
2022-11-23T14:25:40.993Z,99230.60
2022-11-23T14:28:51.588Z,99235.81
2022-11-23T14:31:55.962Z,99227.11
2022-11-23T14:35:18.930Z,99228.89
2022-11-23T14:38:41.892Z,99229.61
2022-11-23T14:41:36.333Z,99227.07
2022-11-23T14:44:35.606Z,99229.17
2022-11-23T14:47:31.777Z,99227.17
2022-11-23T14:50:27.573Z,99230.09
2022-11-23T14:53:14.966Z,99229.59
2022-11-23T14:56:02.860Z,99230.64
2022-11-23T14:58:51.348Z,99240.14
2022-11-23T15:01:46.403Z,99246.48
2022-11-23T15:04:52.568Z,99257.41
2022-11-23T15:07:52.759Z,99261.80
2022-11-23T15:11:18.169Z,99269.41
2022-11-23T15:14:23.869Z,99272.41
2022-11-23T15:17:20.938Z,99276.30
2022-11-23T15:20:12.376Z,99279.31
2022-11-23T15:23:02.530Z,99283.86
2022-11-23T15:25:56.045Z,99283.91
2022-11-23T15:28:45.952Z,99282.24
2022-11-23T15:31:36.718Z,99286.77
2022-11-23T15:34:25.810Z,99287.11
2022-11-23T15:37:13.768Z,99283.02
2022-11-23T15:40:01.428Z,99283.45
2022-11-23T15:42:51.829Z,99287.05
2022-11-23T15:45:45.425Z,99286.29
2022-11-23T15:48:37.166Z,99283.92
2022-11-23T15:51:43.908Z,99280.86
2022-11-23T15:54:37.504Z,99276.11
2022-11-23T15:57:26.635Z,99279.95
2022-11-23T16:00:26.011Z,99276.88
2022-11-23T16:03:42.021Z,99279.89
2022-11-23T16:06:47.589Z,99281.42
2022-11-23T16:09:52.787Z,99282.09
2022-11-23T16:12:59.507Z,99281.84
2022-11-23T16:16:00.161Z,99277.63
2022-11-23T16:18:52.326Z,99273.31
2022-11-23T16:21:45.089Z,99271.30
2022-11-23T16:24:36.549Z,99270.47
2022-11-23T16:27:26.363Z,99270.55
2022-11-23T16:30:42.431Z,99272.39
2022-11-23T16:33:35.777Z,99269.42
2022-11-23T16:36:27.781Z,99268.66
2022-11-23T16:39:15.636Z,99267.30
2022-11-23T16:42:03.886Z,99268.74
2022-11-23T16:44:51.237Z,99274.30
2022-11-23T16:47:55.972Z,99276.84
2022-11-23T16:50:43.449Z,99279.61
2022-11-23T16:53:53.525Z,99280.29
2022-11-23T16:56:41.250Z,99283.27
2022-11-23T16:59:29.009Z,99284.95
2022-11-23T17:02:17.067Z,99286.88
2022-11-23T17:05:17.505Z,99285.46
2022-11-23T17:08:05.698Z,99288.56
2022-11-23T17:10:54.151Z,99290.33
2022-11-23T17:13:45.642Z,99290.46
2022-11-23T17:16:34.803Z,99290.43
2022-11-23T17:19:23.161Z,99296.51
2022-11-23T17:22:11.200Z,99298.68
2022-11-23T17:24:58.779Z,99294.52
2022-11-23T17:27:46.938Z,99297.77
2022-11-23T17:30:35.092Z,99296.30
2022-11-23T17:33:22.879Z,99300.50
2022-11-23T17:36:10.513Z,99298.13
2022-11-23T17:38:59.082Z,99303.90
2022-11-23T17:41:48.266Z,99304.06
2022-11-23T17:44:36.260Z,99300.39
2022-11-23T17:47:33.102Z,99300.39
2022-11-23T17:50:21.120Z,99299.73
2022-11-23T17:53:12.447Z,99296.88
2022-11-23T17:56:00.129Z,99296.36
2022-11-23T17:58:48.529Z,99296.50
2022-11-23T18:01:36.953Z,99299.07
2022-11-23T18:04:24.678Z,99301.48
2022-11-23T18:07:16.664Z,99303.20
2022-11-23T18:10:05.155Z,99304.14
2022-11-23T18:12:53.354Z,99302.98
2022-11-23T18:15:41.099Z,99307.94
2022-11-23T18:18:28.942Z,99302.27
2022-11-23T18:21:17.870Z,99294.11
2022-11-23T18:24:06.475Z,99291.86
2022-11-23T18:26:54.125Z,99296.02
2022-11-23T18:29:41.942Z,99289.92
2022-11-23T18:32:33.365Z,99287.48
2022-11-23T18:35:21.741Z,99289.98
2022-11-23T18:38:13.195Z,99293.23
2022-11-23T18:41:01.195Z,99294.70
2022-11-23T18:43:48.478Z,99302.07
2022-11-23T18:46:36.120Z,99297.45
2022-11-23T18:49:24.642Z,99297.38
2022-11-23T18:52:13.950Z,99289.91
2022-11-23T18:55:01.468Z,99289.14
2022-11-23T18:57:49.081Z,99291.48
2022-11-23T19:00:37.209Z,99295.10
2022-11-23T19:03:24.802Z,99300.45
2022-11-23T19:06:14.480Z,99305.12
2022-11-23T19:09:03.081Z,99308.63
2022-11-23T19:11:51.772Z,99304.71
2022-11-23T19:14:39.444Z,99305.44
2022-11-23T19:17:27.188Z,99309.36
2022-11-23T19:20:18.608Z,99310.48
2022-11-23T19:23:05.985Z,99316.57
2022-11-23T19:25:53.449Z,99320.47
2022-11-23T19:28:44.784Z,99315.09
2022-11-23T19:31:34.231Z,99313.85
2022-11-23T19:34:22.577Z,99313.44
2022-11-23T19:37:10.843Z,99308.71
2022-11-23T19:39:58.410Z,99312.60
2022-11-23T19:42:46.401Z,99306.88
2022-11-23T19:45:34.085Z,99303.46
2022-11-23T19:48:24.663Z,99299.20
2022-11-23T19:51:15.200Z,99301.51
2022-11-23T19:54:03.106Z,99297.05
2022-11-23T19:56:51.569Z,99295.22
2022-11-23T19:59:39.271Z,99297.95
2022-11-23T20:02:26.830Z,99301.77
2022-11-23T20:05:15.971Z,99309.59
2022-11-23T20:08:03.731Z,99317.90
2022-11-23T20:10:51.734Z,99314.81
2022-11-23T20:13:42.823Z,99314.82
2022-11-23T20:16:33.182Z,99315.94
2022-11-23T20:19:20.731Z,99318.55
2022-11-23T20:22:08.910Z,99323.53
2022-11-23T20:24:56.307Z,99323.14
2022-11-23T20:27:43.753Z,99321.92
2022-11-23T20:30:34.920Z,99323.88
2022-11-23T20:33:22.951Z,99326.18
2022-11-23T20:36:15.748Z,99330.30
2022-11-23T20:39:15.647Z,99331.42
2022-11-23T20:42:03.587Z,99332.01
2022-11-23T20:44:51.283Z,99326.84
2022-11-23T20:47:39.247Z,99331.19
2022-11-23T20:50:28.007Z,99335.02
2022-11-23T20:53:15.857Z,99333.46
2022-11-23T20:56:04.512Z,99333.78
2022-11-23T20:59:00.354Z,99330.44
2022-11-23T21:01:48.538Z,99332.95
2022-11-23T21:04:36.750Z,99334.09
2022-11-23T21:07:24.697Z,99335.73
2022-11-23T21:10:33.795Z,99337.63
2022-11-23T21:13:49.223Z,99338.43
2022-11-23T21:16:56.080Z,99338.81
2022-11-23T21:19:43.854Z,99343.70
2022-11-23T21:22:31.365Z,99343.83
2022-11-23T21:25:18.902Z,99345.27
2022-11-23T21:28:11.647Z,99345.70
2022-11-23T21:31:10.248Z,99347.48
2022-11-23T21:34:05.161Z,99351.47
2022-11-23T21:36:54.790Z,99354.38
2022-11-23T21:39:44.591Z,99356.62
2022-11-23T21:42:35.982Z,99357.97
2022-11-23T21:45:24.708Z,99355.09
2022-11-23T21:48:12.111Z,99354.80
2022-11-23T21:51:05.571Z,99357.46
2022-11-23T21:53:54.511Z,99356.01
2022-11-23T21:56:44.436Z,99358.74
2022-11-23T21:59:32.347Z,99355.85
2022-11-23T22:02:20.032Z,99356.55
2022-11-23T22:05:07.909Z,99355.41
2022-11-23T22:08:27.543Z,99350.28
2022-11-23T22:11:11.129Z,99348.27
2022-11-23T22:14:02.418Z,99345.42
2022-11-23T22:16:50.661Z,99346.00
2022-11-23T22:19:38.295Z,99350.27
2022-11-23T22:22:27.351Z,99350.74
2022-11-23T22:25:15.159Z,99349.61
2022-11-23T22:28:02.605Z,99345.02
2022-11-23T22:30:53.602Z,99346.15
2022-11-23T22:33:42.859Z,99341.70
2022-11-23T22:36:30.877Z,99341.83
2022-11-23T22:39:18.769Z,99347.64
2022-11-23T22:42:17.518Z,99344.64
2022-11-23T22:45:06.165Z,99346.75
2022-11-23T22:48:01.768Z,99345.08
2022-11-23T22:51:01.528Z,99342.31
2022-11-23T22:53:54.968Z,99339.96
2022-11-23T22:56:53.358Z,99341.19
2022-11-23T22:59:45.776Z,99337.48
2022-11-23T23:02:34.278Z,99336.52
2022-11-23T23:05:22.335Z,99340.79
2022-11-23T23:08:10.750Z,99341.40
2022-11-23T23:11:05.529Z,99345.35
2022-11-23T23:13:53.760Z,99342.94
2022-11-23T23:16:41.590Z,99345.85
2022-11-23T23:19:29.826Z,99340.27
2022-11-23T23:22:17.662Z,99343.70
2022-11-23T23:25:08.068Z,99346.63
2022-11-23T23:27:56.058Z,99346.37
2022-11-23T23:30:43.919Z,99347.44
2022-11-23T23:33:33.476Z,99345.77
2022-11-23T23:36:23.323Z,99336.66
2022-11-23T23:39:12.480Z,99338.34
2022-11-23T23:41:59.747Z,99336.00
2022-11-23T23:44:47.155Z,99346.55
2022-11-23T23:47:34.864Z,99343.69
2022-11-23T23:50:22.590Z,99346.30
2022-11-23T23:53:10.162Z,99349.58
2022-11-23T23:56:00.384Z,99353.23
2022-11-23T23:58:48.574Z,99349.76
